sensor_id;sensor_type;location;lat;lon;timestamp;P1;durP1;ratioP1;P2;durP2;ratioP2
26377;SDS011;14078;50.974;6.786;2024-01-30T00:02:01;18.60;;;10.63;;
26377;SDS011;14078;50.974;6.786;2024-01-30T00:04:27;19.23;;;10.35;;
26377;SDS011;14078;50.974;6.786;2024-01-30T00:06:55;18.67;;;10.32;;
26377;SDS011;14078;50.974;6.786;2024-01-30T00:09:22;15.98;;;9.23;;
26377;SDS011;14078;50.974;6.786;2024-01-30T00:11:49;14.30;;;9.57;;
26377;SDS011;14078;50.974;6.786;2024-01-30T00:14:16;21.95;;;10.50;;
26377;SDS011;14078;50.974;6.786;2024-01-30T00:16:42;15.18;;;9.40;;
26377;SDS011;14078;50.974;6.786;2024-01-30T00:19:09;23.23;;;9.98;;
26377;SDS011;14078;50.974;6.786;2024-01-30T00:21:36;18.55;;;9.75;;
26377;SDS011;14078;50.974;6.786;2024-01-30T00:24:04;16.45;;;9.88;;
26377;SDS011;14078;50.974;6.786;2024-01-30T00:26:31;17.73;;;9.77;;
26377;SDS011;14078;50.974;6.786;2024-01-30T00:28:57;19.08;;;9.52;;
26377;SDS011;14078;50.974;6.786;2024-01-30T00:31:24;13.13;;;9.73;;
26377;SDS011;14078;50.974;6.786;2024-01-30T00:33:51;21.15;;;9.95;;
26377;SDS011;14078;50.974;6.786;2024-01-30T00:36:18;17.02;;;9.40;;
26377;SDS011;14078;50.974;6.786;2024-01-30T00:38:44;19.02;;;10.55;;
26377;SDS011;14078;50.974;6.786;2024-01-30T00:41:12;17.30;;;10.32;;
26377;SDS011;14078;50.974;6.786;2024-01-30T00:43:39;17.70;;;10.37;;
26377;SDS011;14078;50.974;6.786;2024-01-30T00:46:06;19.48;;;10.43;;
26377;SDS011;14078;50.974;6.786;2024-01-30T00:48:33;16.52;;;10.25;;
26377;SDS011;14078;50.974;6.786;2024-01-30T00:50:59;20.15;;;10.60;;
26377;SDS011;14078;50.974;6.786;2024-01-30T00:53:26;15.32;;;10.13;;
26377;SDS011;14078;50.974;6.786;2024-01-30T00:55:53;18.05;;;10.77;;
26377;SDS011;14078;50.974;6.786;2024-01-30T00:58:21;18.98;;;10.07;;
26377;SDS011;14078;50.974;6.786;2024-01-30T01:00:47;12.85;;;9.18;;
26377;SDS011;14078;50.974;6.786;2024-01-30T01:03:14;18.73;;;9.50;;
26377;SDS011;14078;50.974;6.786;2024-01-30T01:05:41;18.20;;;10.23;;
26377;SDS011;14078;50.974;6.786;2024-01-30T01:08:07;19.38;;;9.75;;
26377;SDS011;14078;50.974;6.786;2024-01-30T01:10:34;19.95;;;10.95;;
26377;SDS011;14078;50.974;6.786;2024-01-30T01:13:00;22.10;;;10.90;;
26377;SDS011;14078;50.974;6.786;2024-01-30T01:15:28;20.15;;;10.68;;
26377;SDS011;14078;50.974;6.786;2024-01-30T01:17:55;17.88;;;11.18;;
26377;SDS011;14078;50.974;6.786;2024-01-30T01:20:22;21.15;;;11.05;;
26377;SDS011;14078;50.974;6.786;2024-01-30T01:22:48;23.20;;;11.40;;
26377;SDS011;14078;50.974;6.786;2024-01-30T01:25:15;24.42;;;10.40;;
26377;SDS011;14078;50.974;6.786;2024-01-30T01:27:42;17.10;;;10.27;;
26377;SDS011;14078;50.974;6.786;2024-01-30T01:30:16;21.83;;;11.85;;
26377;SDS011;14078;50.974;6.786;2024-01-30T01:32:48;16.70;;;10.10;;
26377;SDS011;14078;50.974;6.786;2024-01-30T01:35:20;16.27;;;10.88;;
26377;SDS011;14078;50.974;6.786;2024-01-30T01:37:47;16.52;;;10.85;;
26377;SDS011;14078;50.974;6.786;2024-01-30T01:40:19;17.88;;;10.10;;
26377;SDS011;14078;50.974;6.786;2024-01-30T01:42:47;25.50;;;10.95;;
26377;SDS011;14078;50.974;6.786;2024-01-30T01:45:13;22.27;;;11.07;;
26377;SDS011;14078;50.974;6.786;2024-01-30T01:47:40;21.67;;;11.63;;
26377;SDS011;14078;50.974;6.786;2024-01-30T01:50:09;19.67;;;10.38;;
26377;SDS011;14078;50.974;6.786;2024-01-30T01:52:35;21.13;;;10.98;;
26377;SDS011;14078;50.974;6.786;2024-01-30T01:55:03;21.90;;;11.13;;
26377;SDS011;14078;50.974;6.786;2024-01-30T01:57:30;21.27;;;10.88;;
26377;SDS011;14078;50.974;6.786;2024-01-30T01:59:57;21.17;;;11.15;;
26377;SDS011;14078;50.974;6.786;2024-01-30T02:02:24;19.55;;;11.48;;
26377;SDS011;14078;50.974;6.786;2024-01-30T02:04:56;18.92;;;10.55;;
26377;SDS011;14078;50.974;6.786;2024-01-30T02:07:24;19.13;;;11.68;;
26377;SDS011;14078;50.974;6.786;2024-01-30T02:09:51;20.90;;;11.25;;
26377;SDS011;14078;50.974;6.786;2024-01-30T02:12:17;21.70;;;11.60;;
26377;SDS011;14078;50.974;6.786;2024-01-30T02:14:44;21.58;;;11.77;;
26377;SDS011;14078;50.974;6.786;2024-01-30T02:17:11;21.17;;;11.10;;
26377;SDS011;14078;50.974;6.786;2024-01-30T02:19:38;19.20;;;10.07;;
26377;SDS011;14078;50.974;6.786;2024-01-30T02:22:06;17.73;;;10.18;;
26377;SDS011;14078;50.974;6.786;2024-01-30T02:24:33;27.17;;;11.80;;
26377;SDS011;14078;50.974;6.786;2024-01-30T02:27:00;17.05;;;11.23;;
26377;SDS011;14078;50.974;6.786;2024-01-30T02:29:27;15.35;;;9.18;;
26377;SDS011;14078;50.974;6.786;2024-01-30T02:31:53;17.33;;;10.93;;
26377;SDS011;14078;50.974;6.786;2024-01-30T02:34:20;19.45;;;10.07;;
26377;SDS011;14078;50.974;6.786;2024-01-30T02:36:47;24.15;;;10.82;;
26377;SDS011;14078;50.974;6.786;2024-01-30T02:39:15;17.20;;;9.80;;
26377;SDS011;14078;50.974;6.786;2024-01-30T02:41:41;21.38;;;10.57;;
26377;SDS011;14078;50.974;6.786;2024-01-30T02:44:08;17.73;;;9.60;;
26377;SDS011;14078;50.974;6.786;2024-01-30T02:46:35;19.95;;;10.38;;
26377;SDS011;14078;50.974;6.786;2024-01-30T02:49:01;17.75;;;10.05;;
26377;SDS011;14078;50.974;6.786;2024-01-30T02:51:28;18.45;;;11.05;;
26377;SDS011;14078;50.974;6.786;2024-01-30T02:53:55;17.23;;;10.55;;
26377;SDS011;14078;50.974;6.786;2024-01-30T02:56:23;19.95;;;9.75;;
26377;SDS011;14078;50.974;6.786;2024-01-30T02:58:49;19.63;;;9.60;;
26377;SDS011;14078;50.974;6.786;2024-01-30T03:01:16;17.98;;;10.45;;
26377;SDS011;14078;50.974;6.786;2024-01-30T03:03:43;19.50;;;10.20;;
26377;SDS011;14078;50.974;6.786;2024-01-30T03:06:09;17.92;;;9.93;;
26377;SDS011;14078;50.974;6.786;2024-01-30T03:08:36;18.60;;;10.48;;
26377;SDS011;14078;50.974;6.786;2024-01-30T03:11:03;16.08;;;9.90;;
26377;SDS011;14078;50.974;6.786;2024-01-30T03:13:31;21.02;;;10.05;;
26377;SDS011;14078;50.974;6.786;2024-01-30T03:15:58;17.73;;;9.98;;
26377;SDS011;14078;50.974;6.786;2024-01-30T03:18:25;18.15;;;11.27;;
26377;SDS011;14078;50.974;6.786;2024-01-30T03:20:51;20.08;;;10.55;;
26377;SDS011;14078;50.974;6.786;2024-01-30T03:23:18;16.08;;;10.10;;
26377;SDS011;14078;50.974;6.786;2024-01-30T03:25:44;17.60;;;10.13;;
26377;SDS011;14078;50.974;6.786;2024-01-30T03:28:11;22.08;;;10.60;;
26377;SDS011;14078;50.974;6.786;2024-01-30T03:30:39;20.33;;;10.63;;
26377;SDS011;14078;50.974;6.786;2024-01-30T03:33:06;19.55;;;9.82;;
26377;SDS011;14078;50.974;6.786;2024-01-30T03:35:32;16.20;;;10.02;;
26377;SDS011;14078;50.974;6.786;2024-01-30T03:37:59;19.38;;;10.55;;
26377;SDS011;14078;50.974;6.786;2024-01-30T03:40:26;17.45;;;10.20;;
26377;SDS011;14078;50.974;6.786;2024-01-30T03:42:52;16.30;;;10.68;;
26377;SDS011;14078;50.974;6.786;2024-01-30T03:45:19;15.77;;;9.88;;
26377;SDS011;14078;50.974;6.786;2024-01-30T03:47:47;19.58;;;9.90;;
26377;SDS011;14078;50.974;6.786;2024-01-30T03:50:14;23.77;;;10.50;;
26377;SDS011;14078;50.974;6.786;2024-01-30T03:52:41;16.75;;;10.73;;
26377;SDS011;14078;50.974;6.786;2024-01-30T03:55:07;17.55;;;9.93;;
26377;SDS011;14078;50.974;6.786;2024-01-30T03:57:34;15.45;;;9.90;;
26377;SDS011;14078;50.974;6.786;2024-01-30T04:00:01;17.70;;;10.10;;
26377;SDS011;14078;50.974;6.786;2024-01-30T04:02:30;14.80;;;9.93;;
26377;SDS011;14078;50.974;6.786;2024-01-30T04:04:57;18.20;;;10.70;;
26377;SDS011;14078;50.974;6.786;2024-01-30T04:07:24;16.50;;;9.10;;
26377;SDS011;14078;50.974;6.786;2024-01-30T04:09:51;18.05;;;10.48;;
26377;SDS011;14078;50.974;6.786;2024-01-30T04:12:18;17.27;;;9.82;;
26377;SDS011;14078;50.974;6.786;2024-01-30T04:14:44;18.05;;;9.48;;
26377;SDS011;14078;50.974;6.786;2024-01-30T04:17:11;15.80;;;9.43;;
26377;SDS011;14078;50.974;6.786;2024-01-30T04:19:38;18.52;;;9.57;;
26377;SDS011;14078;50.974;6.786;2024-01-30T04:22:06;15.25;;;9.40;;
26377;SDS011;14078;50.974;6.786;2024-01-30T04:24:33;18.90;;;11.38;;
26377;SDS011;14078;50.974;6.786;2024-01-30T04:26:59;14.27;;;9.93;;
26377;SDS011;14078;50.974;6.786;2024-01-30T04:29:26;16.00;;;10.70;;
26377;SDS011;14078;50.974;6.786;2024-01-30T04:31:53;14.50;;;9.20;;
26377;SDS011;14078;50.974;6.786;2024-01-30T04:34:19;17.95;;;8.95;;
26377;SDS011;14078;50.974;6.786;2024-01-30T04:36:46;16.63;;;9.32;;
26377;SDS011;14078;50.974;6.786;2024-01-30T04:39:14;14.98;;;8.88;;
26377;SDS011;14078;50.974;6.786;2024-01-30T04:41:41;15.77;;;9.77;;
26377;SDS011;14078;50.974;6.786;2024-01-30T04:44:07;17.38;;;10.52;;
26377;SDS011;14078;50.974;6.786;2024-01-30T04:46:34;19.80;;;9.82;;
26377;SDS011;14078;50.974;6.786;2024-01-30T04:49:01;17.17;;;11.07;;
26377;SDS011;14078;50.974;6.786;2024-01-30T04:51:28;16.85;;;11.25;;
26377;SDS011;14078;50.974;6.786;2024-01-30T04:56:23;16.45;;;9.43;;
26377;SDS011;14078;50.974;6.786;2024-01-30T04:58:49;18.67;;;10.02;;
26377;SDS011;14078;50.974;6.786;2024-01-30T05:01:16;19.15;;;9.95;;
26377;SDS011;14078;50.974;6.786;2024-01-30T05:03:43;21.65;;;9.98;;
26377;SDS011;14078;50.974;6.786;2024-01-30T05:06:09;18.00;;;10.70;;
26377;SDS011;14078;50.974;6.786;2024-01-30T05:08:36;18.35;;;10.23;;
26377;SDS011;14078;50.974;6.786;2024-01-30T05:11:03;18.65;;;9.57;;
26377;SDS011;14078;50.974;6.786;2024-01-30T05:13:32;16.35;;;9.85;;
26377;SDS011;14078;50.974;6.786;2024-01-30T05:15:59;19.73;;;10.80;;
26377;SDS011;14078;50.974;6.786;2024-01-30T05:18:28;22.70;;;10.13;;
26377;SDS011;14078;50.974;6.786;2024-01-30T05:20:54;15.07;;;10.00;;
26377;SDS011;14078;50.974;6.786;2024-01-30T05:23:21;22.27;;;10.40;;
26377;SDS011;14078;50.974;6.786;2024-01-30T05:25:48;18.77;;;10.07;;
26377;SDS011;14078;50.974;6.786;2024-01-30T05:28:14;17.98;;;10.35;;
26377;SDS011;14078;50.974;6.786;2024-01-30T05:30:42;17.08;;;10.02;;
26377;SDS011;14078;50.974;6.786;2024-01-30T05:33:09;17.65;;;9.40;;
26377;SDS011;14078;50.974;6.786;2024-01-30T05:35:37;17.58;;;10.40;;
26377;SDS011;14078;50.974;6.786;2024-01-30T05:38:03;16.90;;;9.73;;
26377;SDS011;14078;50.974;6.786;2024-01-30T05:40:30;18.33;;;10.68;;
26377;SDS011;14078;50.974;6.786;2024-01-30T05:42:57;13.80;;;9.40;;
26377;SDS011;14078;50.974;6.786;2024-01-30T05:45:25;22.23;;;10.55;;
26377;SDS011;14078;50.974;6.786;2024-01-30T05:47:53;15.90;;;9.32;;
26377;SDS011;14078;50.974;6.786;2024-01-30T05:50:20;16.50;;;9.52;;
26377;SDS011;14078;50.974;6.786;2024-01-30T05:52:48;16.60;;;10.20;;
26377;SDS011;14078;50.974;6.786;2024-01-30T05:55:14;16.10;;;9.27;;
26377;SDS011;14078;50.974;6.786;2024-01-30T05:57:41;14.20;;;9.32;;
26377;SDS011;14078;50.974;6.786;2024-01-30T06:00:08;15.07;;;9.05;;
26377;SDS011;14078;50.974;6.786;2024-01-30T06:02:35;14.88;;;8.93;;
26377;SDS011;14078;50.974;6.786;2024-01-30T06:05:03;13.18;;;7.88;;
26377;SDS011;14078;50.974;6.786;2024-01-30T06:07:30;10.52;;;6.30;;
26377;SDS011;14078;50.974;6.786;2024-01-30T06:09:57;13.52;;;7.88;;
26377;SDS011;14078;50.974;6.786;2024-01-30T06:12:26;13.65;;;8.60;;
26377;SDS011;14078;50.974;6.786;2024-01-30T06:14:53;22.50;;;9.77;;
26377;SDS011;14078;50.974;6.786;2024-01-30T06:17:21;14.15;;;8.70;;
26377;SDS011;14078;50.974;6.786;2024-01-30T06:19:48;13.45;;;8.18;;
26377;SDS011;14078;50.974;6.786;2024-01-30T06:22:16;11.48;;;7.72;;
26377;SDS011;14078;50.974;6.786;2024-01-30T06:24:43;13.52;;;8.32;;
26377;SDS011;14078;50.974;6.786;2024-01-30T06:27:12;19.63;;;8.77;;
26377;SDS011;14078;50.974;6.786;2024-01-30T06:29:39;13.63;;;7.40;;
26377;SDS011;14078;50.974;6.786;2024-01-30T06:32:06;13.10;;;8.55;;
26377;SDS011;14078;50.974;6.786;2024-01-30T06:34:33;21.42;;;7.80;;
26377;SDS011;14078;50.974;6.786;2024-01-30T06:36:59;14.27;;;8.52;;
26377;SDS011;14078;50.974;6.786;2024-01-30T06:39:27;10.70;;;6.90;;
26377;SDS011;14078;50.974;6.786;2024-01-30T06:41:54;12.55;;;8.23;;
26377;SDS011;14078;50.974;6.786;2024-01-30T06:44:21;14.63;;;8.65;;
26377;SDS011;14078;50.974;6.786;2024-01-30T06:46:47;12.80;;;7.93;;
26377;SDS011;14078;50.974;6.786;2024-01-30T06:49:14;16.13;;;8.32;;
26377;SDS011;14078;50.974;6.786;2024-01-30T06:51:41;15.88;;;8.20;;
26377;SDS011;14078;50.974;6.786;2024-01-30T06:54:08;17.48;;;8.05;;
26377;SDS011;14078;50.974;6.786;2024-01-30T06:56:36;14.07;;;8.70;;
26377;SDS011;14078;50.974;6.786;2024-01-30T06:59:03;13.70;;;8.02;;
26377;SDS011;14078;50.974;6.786;2024-01-30T07:01:30;12.45;;;7.68;;
26377;SDS011;14078;50.974;6.786;2024-01-30T07:03:57;14.82;;;7.68;;
26377;SDS011;14078;50.974;6.786;2024-01-30T07:06:24;13.65;;;8.82;;
26377;SDS011;14078;50.974;6.786;2024-01-30T07:08:51;16.52;;;8.27;;
26377;SDS011;14078;50.974;6.786;2024-01-30T07:11:20;12.30;;;8.48;;
26377;SDS011;14078;50.974;6.786;2024-01-30T07:13:50;13.65;;;8.18;;
26377;SDS011;14078;50.974;6.786;2024-01-30T07:16:17;14.50;;;8.60;;
26377;SDS011;14078;50.974;6.786;2024-01-30T07:18:44;12.02;;;7.35;;
26377;SDS011;14078;50.974;6.786;2024-01-30T07:21:11;14.32;;;8.05;;
26377;SDS011;14078;50.974;6.786;2024-01-30T07:23:38;12.85;;;8.15;;
26377;SDS011;14078;50.974;6.786;2024-01-30T07:26:04;15.02;;;8.77;;
26377;SDS011;14078;50.974;6.786;2024-01-30T07:28:31;11.63;;;8.13;;
26377;SDS011;14078;50.974;6.786;2024-01-30T07:30:59;17.10;;;8.05;;
26377;SDS011;14078;50.974;6.786;2024-01-30T07:33:26;19.05;;;9.05;;
26377;SDS011;14078;50.974;6.786;2024-01-30T07:38:20;15.38;;;8.70;;
26377;SDS011;14078;50.974;6.786;2024-01-30T07:40:46;13.88;;;9.02;;
26377;SDS011;14078;50.974;6.786;2024-01-30T07:43:13;18.58;;;9.75;;
26377;SDS011;14078;50.974;6.786;2024-01-30T07:45:40;15.77;;;8.85;;
26377;SDS011;14078;50.974;6.786;2024-01-30T07:48:08;15.80;;;8.95;;
26377;SDS011;14078;50.974;6.786;2024-01-30T07:50:34;16.02;;;9.52;;
26377;SDS011;14078;50.974;6.786;2024-01-30T07:53:01;15.35;;;8.68;;
26377;SDS011;14078;50.974;6.786;2024-01-30T07:55:28;14.45;;;8.65;;
26377;SDS011;14078;50.974;6.786;2024-01-30T07:57:56;11.90;;;8.38;;
26377;SDS011;14078;50.974;6.786;2024-01-30T08:00:24;16.65;;;8.88;;
26377;SDS011;14078;50.974;6.786;2024-01-30T08:02:50;16.58;;;8.80;;
26377;SDS011;14078;50.974;6.786;2024-01-30T08:05:20;13.50;;;8.83;;
26377;SDS011;14078;50.974;6.786;2024-01-30T08:07:48;12.82;;;8.50;;
26377;SDS011;14078;50.974;6.786;2024-01-30T08:10:15;16.48;;;8.77;;
26377;SDS011;14078;50.974;6.786;2024-01-30T08:12:43;13.75;;;8.05;;
26377;SDS011;14078;50.974;6.786;2024-01-30T08:15:10;14.02;;;8.13;;
26377;SDS011;14078;50.974;6.786;2024-01-30T08:17:38;17.05;;;7.97;;
26377;SDS011;14078;50.974;6.786;2024-01-30T08:20:05;13.40;;;8.00;;
26377;SDS011;14078;50.974;6.786;2024-01-30T08:22:34;14.17;;;8.00;;
26377;SDS011;14078;50.974;6.786;2024-01-30T08:25:01;17.10;;;8.27;;
26377;SDS011;14078;50.974;6.786;2024-01-30T08:27:27;12.80;;;8.70;;
26377;SDS011;14078;50.974;6.786;2024-01-30T08:29:54;14.63;;;8.40;;
26377;SDS011;14078;50.974;6.786;2024-01-30T08:32:21;13.73;;;8.00;;
26377;SDS011;14078;50.974;6.786;2024-01-30T08:34:48;14.57;;;8.35;;
26377;SDS011;14078;50.974;6.786;2024-01-30T08:37:15;11.50;;;7.97;;
26377;SDS011;14078;50.974;6.786;2024-01-30T08:39:44;13.90;;;8.10;;
26377;SDS011;14078;50.974;6.786;2024-01-30T08:42:10;13.00;;;7.65;;
26377;SDS011;14078;50.974;6.786;2024-01-30T08:44:37;13.25;;;8.85;;
26377;SDS011;14078;50.974;6.786;2024-01-30T08:47:04;13.57;;;8.73;;
26377;SDS011;14078;50.974;6.786;2024-01-30T08:49:31;14.07;;;8.93;;
26377;SDS011;14078;50.974;6.786;2024-01-30T08:51:58;14.63;;;8.90;;
26377;SDS011;14078;50.974;6.786;2024-01-30T08:54:24;14.05;;;8.65;;
26377;SDS011;14078;50.974;6.786;2024-01-30T08:56:52;12.32;;;8.40;;
26377;SDS011;14078;50.974;6.786;2024-01-30T08:59:21;13.50;;;8.05;;
26377;SDS011;14078;50.974;6.786;2024-01-30T09:01:47;15.40;;;8.20;;
26377;SDS011;14078;50.974;6.786;2024-01-30T09:04:18;15.55;;;9.02;;
26377;SDS011;14078;50.974;6.786;2024-01-30T09:06:45;16.83;;;8.15;;
26377;SDS011;14078;50.974;6.786;2024-01-30T09:09:11;14.57;;;8.23;;
26377;SDS011;14078;50.974;6.786;2024-01-30T09:11:39;14.02;;;7.90;;
26377;SDS011;14078;50.974;6.786;2024-01-30T09:14:07;16.88;;;9.55;;
26377;SDS011;14078;50.974;6.786;2024-01-30T09:16:34;13.93;;;8.98;;
26377;SDS011;14078;50.974;6.786;2024-01-30T09:19:00;17.42;;;9.15;;
26377;SDS011;14078;50.974;6.786;2024-01-30T09:21:27;14.88;;;8.40;;
26377;SDS011;14078;50.974;6.786;2024-01-30T09:23:54;17.55;;;8.98;;
26377;SDS011;14078;50.974;6.786;2024-01-30T09:26:21;18.17;;;8.75;;
26377;SDS011;14078;50.974;6.786;2024-01-30T09:28:47;12.85;;;8.13;;
26377;SDS011;14078;50.974;6.786;2024-01-30T09:31:15;14.98;;;9.07;;
26377;SDS011;14078;50.974;6.786;2024-01-30T09:33:42;16.63;;;9.25;;
26377;SDS011;14078;50.974;6.786;2024-01-30T09:38:40;18.35;;;9.27;;
26377;SDS011;14078;50.974;6.786;2024-01-30T09:41:08;17.20;;;9.73;;
26377;SDS011;14078;50.974;6.786;2024-01-30T09:43:36;14.82;;;9.38;;
26377;SDS011;14078;50.974;6.786;2024-01-30T09:46:04;16.92;;;8.75;;
26377;SDS011;14078;50.974;6.786;2024-01-30T09:48:34;11.70;;;8.30;;
26377;SDS011;14078;50.974;6.786;2024-01-30T09:51:01;16.48;;;8.80;;
26377;SDS011;14078;50.974;6.786;2024-01-30T09:53:28;17.90;;;8.82;;
26377;SDS011;14078;50.974;6.786;2024-01-30T09:55:55;18.02;;;8.85;;
26377;SDS011;14078;50.974;6.786;2024-01-30T09:58:23;15.50;;;8.73;;
26377;SDS011;14078;50.974;6.786;2024-01-30T10:00:49;17.08;;;9.27;;
26377;SDS011;14078;50.974;6.786;2024-01-30T10:03:16;13.35;;;8.57;;
26377;SDS011;14078;50.974;6.786;2024-01-30T10:05:45;17.10;;;8.98;;
26377;SDS011;14078;50.974;6.786;2024-01-30T10:08:18;15.27;;;9.30;;
26377;SDS011;14078;50.974;6.786;2024-01-30T10:10:45;14.00;;;8.20;;
26377;SDS011;14078;50.974;6.786;2024-01-30T10:13:12;14.32;;;8.63;;
26377;SDS011;14078;50.974;6.786;2024-01-30T10:15:39;13.30;;;9.13;;
26377;SDS011;14078;50.974;6.786;2024-01-30T10:18:05;13.57;;;8.90;;
26377;SDS011;14078;50.974;6.786;2024-01-30T10:20:32;17.13;;;9.77;;
26377;SDS011;14078;50.974;6.786;2024-01-30T10:23:01;16.63;;;8.70;;
26377;SDS011;14078;50.974;6.786;2024-01-30T10:25:28;12.48;;;7.82;;
26377;SDS011;14078;50.974;6.786;2024-01-30T10:27:56;15.55;;;9.38;;
26377;SDS011;14078;50.974;6.786;2024-01-30T10:30:27;14.20;;;9.98;;
26377;SDS011;14078;50.974;6.786;2024-01-30T10:32:53;12.32;;;8.45;;
26377;SDS011;14078;50.974;6.786;2024-01-30T10:35:20;12.60;;;9.02;;
26377;SDS011;14078;50.974;6.786;2024-01-30T10:37:47;13.85;;;9.60;;
26377;SDS011;14078;50.974;6.786;2024-01-30T10:40:15;17.40;;;10.02;;
26377;SDS011;14078;50.974;6.786;2024-01-30T10:42:42;17.10;;;10.05;;
26377;SDS011;14078;50.974;6.786;2024-01-30T10:45:10;13.98;;;9.13;;
26377;SDS011;14078;50.974;6.786;2024-01-30T10:47:39;15.68;;;9.48;;
26377;SDS011;14078;50.974;6.786;2024-01-30T10:50:10;13.07;;;9.43;;
26377;SDS011;14078;50.974;6.786;2024-01-30T10:52:37;16.27;;;8.93;;
26377;SDS011;14078;50.974;6.786;2024-01-30T10:55:07;12.70;;;9.93;;
26377;SDS011;14078;50.974;6.786;2024-01-30T10:57:35;12.07;;;9.15;;
26377;SDS011;14078;50.974;6.786;2024-01-30T11:00:03;15.60;;;8.77;;
26377;SDS011;14078;50.974;6.786;2024-01-30T11:02:35;16.25;;;9.25;;
26377;SDS011;14078;50.974;6.786;2024-01-30T11:05:04;18.47;;;9.13;;
26377;SDS011;14078;50.974;6.786;2024-01-30T11:07:31;19.13;;;9.80;;
26377;SDS011;14078;50.974;6.786;2024-01-30T11:10:01;16.58;;;9.30;;
26377;SDS011;14078;50.974;6.786;2024-01-30T11:12:30;15.25;;;8.73;;
26377;SDS011;14078;50.974;6.786;2024-01-30T11:15:03;14.43;;;9.02;;
26377;SDS011;14078;50.974;6.786;2024-01-30T11:17:45;18.85;;;9.55;;
26377;SDS011;14078;50.974;6.786;2024-01-30T11:20:16;22.75;;;9.48;;
26377;SDS011;14078;50.974;6.786;2024-01-30T11:22:45;11.25;;;8.75;;
26377;SDS011;14078;50.974;6.786;2024-01-30T11:25:13;17.77;;;9.43;;
26377;SDS011;14078;50.974;6.786;2024-01-30T11:27:41;12.45;;;8.85;;
26377;SDS011;14078;50.974;6.786;2024-01-30T11:30:09;17.25;;;9.80;;
26377;SDS011;14078;50.974;6.786;2024-01-30T11:32:36;16.52;;;9.70;;
26377;SDS011;14078;50.974;6.786;2024-01-30T11:35:03;16.00;;;9.23;;
26377;SDS011;14078;50.974;6.786;2024-01-30T11:37:33;12.10;;;8.75;;
26377;SDS011;14078;50.974;6.786;2024-01-30T11:42:30;15.02;;;8.30;;
26377;SDS011;14078;50.974;6.786;2024-01-30T11:44:59;16.92;;;8.52;;
26377;SDS011;14078;50.974;6.786;2024-01-30T11:47:28;12.07;;;7.68;;
26377;SDS011;14078;50.974;6.786;2024-01-30T11:49:55;15.53;;;9.13;;
26377;SDS011;14078;50.974;6.786;2024-01-30T11:52:22;14.48;;;8.30;;
26377;SDS011;14078;50.974;6.786;2024-01-30T11:54:48;15.40;;;9.90;;
26377;SDS011;14078;50.974;6.786;2024-01-30T11:57:15;16.30;;;8.23;;
26377;SDS011;14078;50.974;6.786;2024-01-30T11:59:42;12.57;;;8.57;;
26377;SDS011;14078;50.974;6.786;2024-01-30T12:02:08;18.85;;;9.68;;
26377;SDS011;14078;50.974;6.786;2024-01-30T12:04:42;15.48;;;8.85;;
26377;SDS011;14078;50.974;6.786;2024-01-30T12:07:09;12.65;;;8.68;;
26377;SDS011;14078;50.974;6.786;2024-01-30T12:09:36;12.60;;;9.00;;
26377;SDS011;14078;50.974;6.786;2024-01-30T12:12:02;12.70;;;7.97;;
26377;SDS011;14078;50.974;6.786;2024-01-30T12:14:30;57.83;;;19.15;;
26377;SDS011;14078;50.974;6.786;2024-01-30T12:16:57;17.88;;;9.50;;
26377;SDS011;14078;50.974;6.786;2024-01-30T12:19:24;21.02;;;10.13;;
26377;SDS011;14078;50.974;6.786;2024-01-30T12:21:55;14.68;;;9.68;;
26377;SDS011;14078;50.974;6.786;2024-01-30T12:24:24;14.52;;;9.63;;
26377;SDS011;14078;50.974;6.786;2024-01-30T12:26:51;12.88;;;8.93;;
26377;SDS011;14078;50.974;6.786;2024-01-30T12:29:18;20.00;;;9.18;;
26377;SDS011;14078;50.974;6.786;2024-01-30T12:31:46;15.30;;;8.93;;
26377;SDS011;14078;50.974;6.786;2024-01-30T12:34:13;17.70;;;9.63;;
26377;SDS011;14078;50.974;6.786;2024-01-30T12:36:41;9.67;;;8.33;;
26377;SDS011;14078;50.974;6.786;2024-01-30T12:39:11;29.65;;;13.73;;
26377;SDS011;14078;50.974;6.786;2024-01-30T12:41:39;16.50;;;9.65;;
26377;SDS011;14078;50.974;6.786;2024-01-30T12:44:06;20.42;;;8.90;;
26377;SDS011;14078;50.974;6.786;2024-01-30T12:46:34;14.77;;;8.52;;
26377;SDS011;14078;50.974;6.786;2024-01-30T12:49:00;14.57;;;7.78;;
26377;SDS011;14078;50.974;6.786;2024-01-30T12:51:28;12.10;;;6.53;;
26377;SDS011;14078;50.974;6.786;2024-01-30T12:53:54;6.60;;;4.95;;
26377;SDS011;14078;50.974;6.786;2024-01-30T12:56:23;7.32;;;4.60;;
26377;SDS011;14078;50.974;6.786;2024-01-30T12:58:49;6.97;;;4.30;;
26377;SDS011;14078;50.974;6.786;2024-01-30T13:01:16;8.68;;;3.95;;
26377;SDS011;14078;50.974;6.786;2024-01-30T13:06:09;4.05;;;3.53;;
26377;SDS011;14078;50.974;6.786;2024-01-30T13:08:36;5.78;;;4.20;;
26377;SDS011;14078;50.974;6.786;2024-01-30T13:11:03;6.38;;;4.55;;
26377;SDS011;14078;50.974;6.786;2024-01-30T13:13:31;11.68;;;4.05;;
26377;SDS011;14078;50.974;6.786;2024-01-30T13:15:57;6.03;;;3.60;;
26377;SDS011;14078;50.974;6.786;2024-01-30T13:18:24;5.00;;;3.28;;
26377;SDS011;14078;50.974;6.786;2024-01-30T13:20:51;5.35;;;3.80;;
26377;SDS011;14078;50.974;6.786;2024-01-30T13:23:17;7.13;;;3.83;;
26377;SDS011;14078;50.974;6.786;2024-01-30T13:25:44;6.05;;;3.90;;
26377;SDS011;14078;50.974;6.786;2024-01-30T13:28:11;5.07;;;4.22;;
26377;SDS011;14078;50.974;6.786;2024-01-30T13:30:39;5.07;;;3.42;;
26377;SDS011;14078;50.974;6.786;2024-01-30T13:33:05;5.57;;;3.58;;
26377;SDS011;14078;50.974;6.786;2024-01-30T13:35:32;6.07;;;3.63;;
26377;SDS011;14078;50.974;6.786;2024-01-30T13:37:59;8.52;;;3.35;;
26377;SDS011;14078;50.974;6.786;2024-01-30T13:40:25;8.93;;;3.80;;
26377;SDS011;14078;50.974;6.786;2024-01-30T13:42:52;4.82;;;3.38;;
26377;SDS011;14078;50.974;6.786;2024-01-30T13:45:19;9.98;;;4.63;;
26377;SDS011;14078;50.974;6.786;2024-01-30T13:47:47;5.53;;;3.85;;
26377;SDS011;14078;50.974;6.786;2024-01-30T13:50:13;11.55;;;4.70;;
26377;SDS011;14078;50.974;6.786;2024-01-30T13:52:41;6.57;;;4.30;;
26377;SDS011;14078;50.974;6.786;2024-01-30T13:55:08;5.13;;;3.70;;
26377;SDS011;14078;50.974;6.786;2024-01-30T13:57:35;5.03;;;3.85;;
26377;SDS011;14078;50.974;6.786;2024-01-30T14:00:02;9.40;;;4.68;;
26377;SDS011;14078;50.974;6.786;2024-01-30T14:02:31;6.18;;;3.85;;
26377;SDS011;14078;50.974;6.786;2024-01-30T14:04:59;10.65;;;4.32;;
26377;SDS011;14078;50.974;6.786;2024-01-30T14:07:26;11.05;;;4.80;;
26377;SDS011;14078;50.974;6.786;2024-01-30T14:09:52;10.55;;;5.03;;
26377;SDS011;14078;50.974;6.786;2024-01-30T14:12:19;7.15;;;4.40;;
26377;SDS011;14078;50.974;6.786;2024-01-30T14:14:46;7.25;;;4.63;;
26377;SDS011;14078;50.974;6.786;2024-01-30T14:17:13;7.32;;;4.88;;
26377;SDS011;14078;50.974;6.786;2024-01-30T14:19:39;6.20;;;4.35;;
26377;SDS011;14078;50.974;6.786;2024-01-30T14:22:07;9.63;;;5.70;;
26377;SDS011;14078;50.974;6.786;2024-01-30T14:24:34;6.28;;;4.75;;
26377;SDS011;14078;50.974;6.786;2024-01-30T14:27:02;13.38;;;5.30;;
26377;SDS011;14078;50.974;6.786;2024-01-30T14:29:29;7.32;;;4.57;;
26377;SDS011;14078;50.974;6.786;2024-01-30T14:31:55;8.85;;;4.63;;
26377;SDS011;14078;50.974;6.786;2024-01-30T14:34:22;11.57;;;4.90;;
26377;SDS011;14078;50.974;6.786;2024-01-30T14:36:49;15.73;;;5.63;;
26377;SDS011;14078;50.974;6.786;2024-01-30T14:39:17;9.23;;;5.00;;
26377;SDS011;14078;50.974;6.786;2024-01-30T14:41:44;8.95;;;4.90;;
26377;SDS011;14078;50.974;6.786;2024-01-30T14:44:10;5.82;;;4.53;;
26377;SDS011;14078;50.974;6.786;2024-01-30T14:46:37;11.38;;;4.72;;